Briefing drone pour Genlis

Rechercher une autre localisation

Conditions de vol :


Nous sommes le : Lundi 28 septembre 2020
Il est 14:50 UTC (16:50 LT)

Lever de soleil : 05:08 UTC (07:08 LT)
Coucher de soleil : 17:51 UTC (19:51 LT)

Météo

L'essentiel des conditions de vol

VIGILANCE MÉTÉO FRANCE - Côte-dOr (21)
Pas de vigilances particulieres
METAR de LFSD
LFSD 281430Z AUTO 19006KT 4800 -RA BR SCT005 BKN025 BKN031 13/13 Q1013

Date d'émission: 28/09/2020
Heure d'émission: 14:30 UTC
Vent: 190° pour 6 KT (11 km/h)
Visibilité horizontale: 4800 m
Plafond :
- Nuages épars à 500ft (152m)
- Nuages morcelés à 2500ft (762m)
- Nuages morcelés à 3100ft (945m)
Température: 13 °C
Point de rosée: 13 °C
Humidité: 100%
Pression (QNH): 1013 hPa
Conditions: Faible pluie
TAF de LFSD
LFSD 010600Z 0100/0124 CNL

Conditions prévues :

Heure d'émission : Bulletin éffectué le 01 à 00:00 UTC
Prévision : Valide du 01 a 00:00 UTC au 01 a 23:59 UTC
Nuages : à 0ft (0 m)
WEBCAM POUR GENLIS

Réglementation

Voler en sécurité

CARTES AERONAUTIQUE 1/500.000
CARTES VAC (LFSD)
SUP AIP




Chargement des AIP...
NOTAM (GENLIS + Terrain à proximité / FIR )




Chargement des NOTAMS...
CONTACT PREFECTURE 21
Côte-dOr (21) : pref-drone@cote-dor.gouv.fr


Avertissement : Les données mises à disposition sont indicatives. Oxygène Drone ne pourra être tenu responsable de dégâts causés aux biens et aux personnes.